createdAt,value
2018-09-28T00:01:12.635Z,11.48
2018-09-28T00:03:41.202Z,11.50
2018-09-28T00:06:09.767Z,11.47
2018-09-28T00:08:38.308Z,11.50
2018-09-28T00:11:07.095Z,11.54
2018-09-28T00:13:35.652Z,11.58
2018-09-28T00:16:04.184Z,11.28
2018-09-28T00:18:32.718Z,11.00
2018-09-28T00:21:01.244Z,11.05
2018-09-28T00:23:29.758Z,11.07
2018-09-28T00:25:58.463Z,11.16
2018-09-28T00:28:26.973Z,11.35
2018-09-28T00:30:55.490Z,11.52
2018-09-28T00:33:24.044Z,11.51
2018-09-28T00:35:52.581Z,11.57
2018-09-28T00:38:21.034Z,11.53
2018-09-28T00:40:50.107Z,11.36
2018-09-28T00:43:19.470Z,11.30
2018-09-28T00:45:48.112Z,11.11
2018-09-28T00:48:16.914Z,10.80
2018-09-28T00:50:45.442Z,10.47
2018-09-28T00:53:13.983Z,10.32
2018-09-28T00:55:42.582Z,10.44
2018-09-28T00:58:11.032Z,10.41
2018-09-28T01:00:39.532Z,10.23
2018-09-28T01:03:08.127Z,10.02
2018-09-28T01:05:36.607Z,10.09
2018-09-28T01:08:05.258Z,10.42
2018-09-28T01:10:33.798Z,10.70
2018-09-28T01:13:02.368Z,10.79
2018-09-28T01:15:30.904Z,10.72
2018-09-28T01:17:59.473Z,10.78
2018-09-28T01:20:28.024Z,10.69
2018-09-28T01:22:56.843Z,10.66
2018-09-28T01:25:25.473Z,10.58
2018-09-28T01:27:54.054Z,10.49
2018-09-28T01:30:22.557Z,10.10
2018-09-28T01:32:51.173Z,10.00
2018-09-28T01:35:20.702Z,10.20
2018-09-28T01:37:49.254Z,10.46
2018-09-28T01:40:17.963Z,10.52
2018-09-28T01:42:46.474Z,10.63
2018-09-28T01:45:15.885Z,10.71
2018-09-28T01:47:44.368Z,10.85
2018-09-28T01:50:13.128Z,10.77
2018-09-28T01:52:41.719Z,10.64
2018-09-28T01:55:10.304Z,10.78
2018-09-28T01:57:38.873Z,10.66
2018-09-28T02:00:07.483Z,10.40
2018-09-28T02:02:36.572Z,10.00
2018-09-28T02:05:05.215Z,9.63
2018-09-28T02:07:33.726Z,9.40
2018-09-28T02:10:02.334Z,9.36
2018-09-28T02:12:31.555Z,9.29
2018-09-28T02:15:00.085Z,9.72
2018-09-28T02:17:28.653Z,10.06
2018-09-28T02:19:57.210Z,10.38
2018-09-28T02:22:25.770Z,10.59
2018-09-28T02:24:54.332Z,10.59
2018-09-28T02:27:23.471Z,10.42
2018-09-28T02:29:51.959Z,10.50
2018-09-28T02:32:21.111Z,10.25
2018-09-28T02:34:50.352Z,10.19
2018-09-28T02:37:18.834Z,10.07
2018-09-28T02:39:47.538Z,10.04
2018-09-28T02:42:17.723Z,9.62
2018-09-28T02:44:46.368Z,9.70
2018-09-28T02:47:14.914Z,9.58
2018-09-28T02:49:43.379Z,9.72
2018-09-28T02:52:12.025Z,10.03
2018-09-28T02:54:40.593Z,10.22
2018-09-28T02:57:09.272Z,10.35
2018-09-28T02:59:37.872Z,10.53
2018-09-28T03:02:06.537Z,10.47
2018-09-28T03:04:35.283Z,10.50
2018-09-28T03:07:03.833Z,10.54
2018-09-28T03:09:32.411Z,10.23
2018-09-28T03:12:00.941Z,9.97
2018-09-28T03:14:29.509Z,9.73
2018-09-28T03:16:58.142Z,9.42
2018-09-28T03:19:26.797Z,9.32
2018-09-28T03:21:55.882Z,9.37
2018-09-28T03:24:24.388Z,9.60
2018-09-28T03:26:52.962Z,10.06
2018-09-28T03:29:21.988Z,10.42
2018-09-28T03:31:50.554Z,10.77
2018-09-28T03:34:19.114Z,10.95
2018-09-28T03:36:47.626Z,11.09
2018-09-28T03:39:16.125Z,11.18
2018-09-28T03:41:44.705Z,11.38
2018-09-28T03:44:13.197Z,11.35
2018-09-28T03:46:41.790Z,11.13
2018-09-28T03:49:10.342Z,10.77
2018-09-28T03:51:38.919Z,10.23
2018-09-28T03:54:07.505Z,10.01
2018-09-28T03:56:35.954Z,9.95
2018-09-28T03:59:04.527Z,10.32
2018-09-28T04:01:33.751Z,10.70
2018-09-28T04:04:02.428Z,10.92
2018-09-28T04:06:30.988Z,11.22
2018-09-28T04:08:59.492Z,11.53
2018-09-28T04:11:27.978Z,11.69
2018-09-28T04:13:56.469Z,11.79
2018-09-28T04:16:25.038Z,11.98
2018-09-28T04:18:53.577Z,11.85
2018-09-28T04:21:22.418Z,11.46
2018-09-28T04:23:51.111Z,11.07
2018-09-28T04:26:20.349Z,10.81
2018-09-28T04:28:48.949Z,11.08
2018-09-28T04:31:17.528Z,11.32
2018-09-28T04:33:46.061Z,11.51
2018-09-28T04:36:14.539Z,11.63
2018-09-28T04:38:43.034Z,11.75
2018-09-28T04:41:11.527Z,11.82
2018-09-28T04:43:40.243Z,11.70
2018-09-28T04:46:09.407Z,11.74
2018-09-28T04:48:37.989Z,11.91
2018-09-28T04:51:06.593Z,11.94
2018-09-28T04:53:35.116Z,12.10
2018-09-28T04:56:03.781Z,12.20
2018-09-28T04:58:32.308Z,11.90
2018-09-28T05:01:00.947Z,11.63
2018-09-28T05:03:29.929Z,11.34
2018-09-28T05:05:58.518Z,11.16
2018-09-28T05:08:27.149Z,11.30
2018-09-28T05:10:55.697Z,11.24
2018-09-28T05:13:24.320Z,11.04
2018-09-28T05:15:52.893Z,11.26
2018-09-28T05:18:21.956Z,11.55
2018-09-28T05:20:50.540Z,11.31
2018-09-28T05:23:19.142Z,11.15
2018-09-28T05:25:47.778Z,11.36
2018-09-28T05:28:16.428Z,11.55
2018-09-28T05:30:45.464Z,11.55
2018-09-28T05:33:13.514Z,11.62
2018-09-28T05:35:42.481Z,11.93
2018-09-28T05:38:11.169Z,12.17
2018-09-28T05:40:40.418Z,12.34
2018-09-28T05:43:09.484Z,12.58
2018-09-28T05:45:38.111Z,12.73
2018-09-28T05:48:06.811Z,12.57
2018-09-28T05:50:35.617Z,12.52
2018-09-28T05:53:04.322Z,12.45
2018-09-28T05:55:32.937Z,12.51
2018-09-28T05:58:06.779Z,12.32
2018-09-28T06:00:40.566Z,12.28
2018-09-28T06:03:17.076Z,12.34
2018-09-28T06:05:49.702Z,12.33
2018-09-28T06:08:18.228Z,12.36
2018-09-28T06:10:46.797Z,12.38
2018-09-28T06:13:15.496Z,12.36
2018-09-28T06:15:44.692Z,12.55
2018-09-28T06:18:13.243Z,12.57
2018-09-28T06:20:42.302Z,12.67
2018-09-28T06:23:10.874Z,12.72
2018-09-28T06:25:40.228Z,12.67
2018-09-28T06:28:08.957Z,12.67
2018-09-28T06:30:38.379Z,12.67
2018-09-28T06:33:07.171Z,12.61
2018-09-28T06:35:35.754Z,12.71
2018-09-28T06:38:04.395Z,12.74
2018-09-28T06:40:33.096Z,12.87
2018-09-28T06:43:01.791Z,13.02
2018-09-28T06:45:30.393Z,13.02
2018-09-28T06:47:58.959Z,13.09
2018-09-28T06:50:27.566Z,13.10
2018-09-28T06:52:56.142Z,13.15
2018-09-28T06:55:24.733Z,13.17
2018-09-28T06:57:53.834Z,13.29
2018-09-28T07:00:22.545Z,13.43
2018-09-28T07:02:51.002Z,13.53
2018-09-28T07:05:20.171Z,13.52
2018-09-28T07:07:48.808Z,13.52
2018-09-28T07:10:17.521Z,13.51
2018-09-28T07:12:46.128Z,13.51
2018-09-28T07:15:14.783Z,13.54
2018-09-28T07:17:43.323Z,13.59
2018-09-28T07:20:11.903Z,13.63
2018-09-28T07:22:41.046Z,13.69
2018-09-28T07:25:09.674Z,13.62
2018-09-28T07:27:38.168Z,13.67
2018-09-28T07:30:07.009Z,13.61
2018-09-28T07:32:35.829Z,13.72
2018-09-28T07:35:04.585Z,13.79
2018-09-28T07:37:33.098Z,13.84
2018-09-28T07:40:01.723Z,13.92
2018-09-28T07:42:30.337Z,13.93
2018-09-28T07:44:58.868Z,13.95
2018-09-28T07:47:27.571Z,14.00
2018-09-28T07:49:56.161Z,13.90
2018-09-28T07:52:24.861Z,13.97
2018-09-28T07:54:55.226Z,14.02
2018-09-28T07:57:24.532Z,14.04
2018-09-28T07:59:53.068Z,14.10
2018-09-28T08:02:22.452Z,14.05
2018-09-28T08:04:51.012Z,14.07
2018-09-28T08:07:19.599Z,14.21
2018-09-28T08:09:48.372Z,14.28
2018-09-28T08:12:17.172Z,14.37
2018-09-28T08:14:45.709Z,14.43
2018-09-28T08:17:14.248Z,14.42
2018-09-28T08:19:42.772Z,14.45
2018-09-28T08:22:11.321Z,14.37
2018-09-28T08:24:39.982Z,14.44
2018-09-28T08:27:09.538Z,14.47
2018-09-28T08:29:38.236Z,14.50
2018-09-28T08:32:07.021Z,14.58
2018-09-28T08:34:35.696Z,14.63
2018-09-28T08:37:04.994Z,14.64
2018-09-28T08:39:33.577Z,14.63
2018-09-28T08:42:02.698Z,14.62
2018-09-28T08:44:31.294Z,14.69
2018-09-28T08:46:59.792Z,14.64
2018-09-28T08:49:29.393Z,14.61
2018-09-28T08:51:58.495Z,14.57
2018-09-28T08:54:27.091Z,14.62
2018-09-28T08:56:55.646Z,14.53
2018-09-28T08:59:25.202Z,14.42
2018-09-28T09:01:53.815Z,14.35
2018-09-28T09:04:22.490Z,14.21
2018-09-28T09:06:51.324Z,14.25
2018-09-28T09:09:19.920Z,14.27
2018-09-28T09:11:49.065Z,14.24
2018-09-28T09:14:17.597Z,14.27
2018-09-28T09:16:47.077Z,14.33
2018-09-28T09:19:15.727Z,14.30
2018-09-28T09:21:44.239Z,14.29
2018-09-28T09:24:12.848Z,14.42
2018-09-28T09:26:41.331Z,14.60
2018-09-28T09:29:10.721Z,14.64
2018-09-28T09:31:39.258Z,14.62
2018-09-28T09:34:07.761Z,14.71
2018-09-28T09:36:36.538Z,14.67
2018-09-28T09:39:07.036Z,14.73
2018-09-28T09:41:35.666Z,14.77
2018-09-28T09:44:04.366Z,14.76
2018-09-28T09:46:33.470Z,14.73
2018-09-28T09:49:02.068Z,14.88
2018-09-28T09:51:30.605Z,14.94
2018-09-28T09:53:59.091Z,15.04
2018-09-28T09:56:27.623Z,14.99
2018-09-28T09:58:56.243Z,15.03
2018-09-28T10:01:31.141Z,15.00
2018-09-28T10:04:03.812Z,14.93
2018-09-28T10:06:32.448Z,14.90
2018-09-28T10:09:01.086Z,14.90
2018-09-28T10:11:29.696Z,14.86
2018-09-28T10:13:58.257Z,14.92
2018-09-28T10:16:27.334Z,14.85
2018-09-28T10:18:56.113Z,14.78
2018-09-28T10:21:25.371Z,14.79
2018-09-28T10:23:54.286Z,14.79
2018-09-28T10:26:23.077Z,14.76
2018-09-28T10:28:51.633Z,14.79
2018-09-28T10:31:20.871Z,14.76
2018-09-28T10:33:49.520Z,14.80
2018-09-28T10:36:18.206Z,14.80
2018-09-28T10:38:46.792Z,14.79
2018-09-28T10:41:15.369Z,14.82
2018-09-28T10:43:43.952Z,14.78
2018-09-28T10:46:12.669Z,14.70
2018-09-28T10:48:41.322Z,14.65
2018-09-28T10:51:09.937Z,14.64
2018-09-28T10:53:39.066Z,14.62
2018-09-28T10:56:07.686Z,14.58
2018-09-28T10:58:37.621Z,14.53
2018-09-28T11:01:07.608Z,14.49
2018-09-28T11:03:36.314Z,14.58
2018-09-28T11:06:05.131Z,14.77
2018-09-28T11:08:33.999Z,14.95
2018-09-28T11:11:02.881Z,15.07
2018-09-28T11:13:31.571Z,15.20
2018-09-28T11:16:00.267Z,15.27
2018-09-28T11:18:29.056Z,15.38
2018-09-28T11:20:57.691Z,15.43
2018-09-28T11:23:26.838Z,15.55
2018-09-28T11:25:56.013Z,15.61
2018-09-28T11:28:25.279Z,15.69
2018-09-28T11:30:54.052Z,15.78
2018-09-28T11:33:22.780Z,15.89
2018-09-28T11:35:51.333Z,15.92
2018-09-28T11:38:20.248Z,16.03
2018-09-28T11:40:48.886Z,16.14
2018-09-28T11:43:18.186Z,16.28
2018-09-28T11:45:46.776Z,16.41
2018-09-28T11:48:15.406Z,16.56
2018-09-28T11:50:44.076Z,16.55
2018-09-28T11:53:12.711Z,16.46
2018-09-28T11:55:42.052Z,16.44
2018-09-28T11:58:10.973Z,16.47
2018-09-28T12:00:39.703Z,16.53
2018-09-28T12:03:08.401Z,16.65
2018-09-28T12:05:36.967Z,16.73
2018-09-28T12:08:06.237Z,16.84
2018-09-28T12:10:34.872Z,16.99
2018-09-28T12:13:03.578Z,17.12
2018-09-28T12:15:32.297Z,17.15
2018-09-28T12:18:00.962Z,17.15
2018-09-28T12:20:29.592Z,17.05
2018-09-28T12:22:58.402Z,17.16
2018-09-28T12:25:27.287Z,17.28
2018-09-28T12:27:56.037Z,17.23
2018-09-28T12:30:24.861Z,17.26
2018-09-28T12:32:54.057Z,17.31
2018-09-28T12:35:23.188Z,17.34
2018-09-28T12:37:51.781Z,17.32
2018-09-28T12:40:21.159Z,17.24
2018-09-28T12:42:49.836Z,17.32
2018-09-28T12:45:18.396Z,17.24
2018-09-28T12:47:46.933Z,17.25
2018-09-28T12:50:15.720Z,17.14
2018-09-28T12:52:44.323Z,17.21
2018-09-28T12:55:13.056Z,17.29
2018-09-28T12:57:41.769Z,17.31
2018-09-28T13:00:10.467Z,17.43
2018-09-28T13:02:39.827Z,17.51
2018-09-28T13:05:08.422Z,17.55
2018-09-28T13:07:37.208Z,17.66
2018-09-28T13:10:05.938Z,17.72
2018-09-28T13:12:34.533Z,17.84
2018-09-28T13:15:03.378Z,17.81
2018-09-28T13:17:32.701Z,17.69
2018-09-28T13:20:01.462Z,17.73
2018-09-28T13:22:30.253Z,17.68
2018-09-28T13:24:58.877Z,17.79
2018-09-28T13:27:28.097Z,18.00
2018-09-28T13:29:56.779Z,18.09
2018-09-28T13:32:25.295Z,18.03
2018-09-28T13:34:54.062Z,17.73
2018-09-28T13:37:22.902Z,17.70
2018-09-28T13:39:51.641Z,17.43
2018-09-28T13:42:20.263Z,17.68
2018-09-28T13:44:49.162Z,17.94
2018-09-28T13:47:17.797Z,17.88
2018-09-28T13:49:46.424Z,17.80
2018-09-28T13:52:15.731Z,17.85
2018-09-28T13:54:45.030Z,18.02
2018-09-28T13:57:14.412Z,18.21
2018-09-28T13:59:43.091Z,18.17
2018-09-28T14:02:11.819Z,18.08
2018-09-28T14:04:41.328Z,18.17
2018-09-28T14:07:10.106Z,18.12
2018-09-28T14:09:38.615Z,18.19
2018-09-28T14:12:07.193Z,18.31
2018-09-28T14:14:36.781Z,18.25
2018-09-28T14:17:05.500Z,18.17
2018-09-28T14:19:34.186Z,18.08
2018-09-28T14:22:03.606Z,18.11
2018-09-28T14:24:32.194Z,18.11
2018-09-28T14:27:00.875Z,17.97
2018-09-28T14:29:29.482Z,17.97
2018-09-28T14:31:58.804Z,18.16
2018-09-28T14:34:27.625Z,18.30
2018-09-28T14:36:56.302Z,18.48
2018-09-28T14:39:25.037Z,18.48
2018-09-28T14:41:53.784Z,18.54
2018-09-28T14:44:23.185Z,18.61
2018-09-28T14:46:51.722Z,18.62
2018-09-28T14:49:20.527Z,18.37
2018-09-28T14:51:49.256Z,17.97
2018-09-28T14:54:17.866Z,17.60
2018-09-28T14:56:46.450Z,17.40
2018-09-28T14:59:15.112Z,17.24
2018-09-28T15:01:44.405Z,17.31
2018-09-28T15:04:13.069Z,17.65
2018-09-28T15:06:41.882Z,17.83
2018-09-28T15:09:10.375Z,17.90
2018-09-28T15:11:38.982Z,17.93
2018-09-28T15:14:07.678Z,17.99
2018-09-28T15:16:36.466Z,18.17
2018-09-28T15:19:05.963Z,18.18
2018-09-28T15:21:34.713Z,18.25
2018-09-28T15:24:03.446Z,18.19
2018-09-28T15:26:32.532Z,18.03
2018-09-28T15:29:01.927Z,17.99
2018-09-28T15:31:31.326Z,17.65
2018-09-28T15:33:59.967Z,17.47
2018-09-28T15:36:29.504Z,17.15
2018-09-28T15:38:58.126Z,16.99
2018-09-28T15:41:26.711Z,16.74
2018-09-28T15:43:55.313Z,16.67
2018-09-28T15:46:23.991Z,16.54
2018-09-28T15:48:53.431Z,16.38
2018-09-28T15:51:22.137Z,16.21
2018-09-28T15:53:51.561Z,16.15
2018-09-28T15:56:21.467Z,16.24
2018-09-28T15:58:50.680Z,16.29
2018-09-28T16:01:19.247Z,16.34
2018-09-28T16:03:47.996Z,16.36
2018-09-28T16:06:16.572Z,16.35
2018-09-28T16:08:45.302Z,16.34
2018-09-28T16:11:14.778Z,16.37
2018-09-28T16:13:43.747Z,16.34
2018-09-28T16:16:12.292Z,16.34
2018-09-28T16:18:41.998Z,16.35
2018-09-28T16:21:10.684Z,16.38
2018-09-28T16:23:39.411Z,16.37
2018-09-28T16:26:08.244Z,16.42
2018-09-28T16:28:36.927Z,16.48
2018-09-28T16:31:05.521Z,16.41
2018-09-28T16:33:34.410Z,16.39
2018-09-28T16:36:02.957Z,16.37
2018-09-28T16:38:31.680Z,16.24
2018-09-28T16:41:00.377Z,16.24
2018-09-28T16:43:29.034Z,16.26
2018-09-28T16:45:57.681Z,16.23
2018-09-28T16:48:26.261Z,16.19
2018-09-28T16:50:55.446Z,16.07
2018-09-28T16:53:24.010Z,15.99
2018-09-28T16:55:52.836Z,15.88
2018-09-28T16:58:21.512Z,15.83
2018-09-28T17:00:50.190Z,15.81
2018-09-28T17:03:19.046Z,15.74
2018-09-28T17:05:47.596Z,15.66
2018-09-28T17:08:17.657Z,15.71
2018-09-28T17:10:46.347Z,15.79
2018-09-28T17:13:15.077Z,15.70
2018-09-28T17:15:44.223Z,15.49
2018-09-28T17:18:13.079Z,15.27
2018-09-28T17:20:41.936Z,15.10
2018-09-28T17:23:10.763Z,14.91
2018-09-28T17:25:39.307Z,14.91
2018-09-28T17:28:08.112Z,14.83
2018-09-28T17:30:36.802Z,14.78
2018-09-28T17:33:05.481Z,14.67
2018-09-28T17:35:34.249Z,14.61
2018-09-28T17:38:03.114Z,14.65
2018-09-28T17:40:31.769Z,14.53
2018-09-28T17:43:00.915Z,14.39
2018-09-28T17:45:29.877Z,14.29
2018-09-28T17:47:59.144Z,14.25
2018-09-28T17:50:27.676Z,14.21
2018-09-28T17:52:56.571Z,14.24
2018-09-28T17:55:25.602Z,14.21
2018-09-28T17:57:55.621Z,14.16
2018-09-28T18:00:24.357Z,14.11
2018-09-28T18:02:53.775Z,14.16
2018-09-28T18:05:22.976Z,14.13
2018-09-28T18:07:52.289Z,14.14
2018-09-28T18:10:20.985Z,14.28
2018-09-28T18:12:49.815Z,14.23
2018-09-28T18:15:18.416Z,14.09
2018-09-28T18:17:47.162Z,13.96
2018-09-28T18:20:16.116Z,13.87
2018-09-28T18:22:44.649Z,13.69
2018-09-28T18:25:13.312Z,13.58
2018-09-28T18:27:42.902Z,13.48
2018-09-28T18:30:11.459Z,13.39
2018-09-28T18:32:40.841Z,13.33
2018-09-28T18:35:09.753Z,13.41
2018-09-28T18:37:38.528Z,13.48
2018-09-28T18:40:07.521Z,13.51
2018-09-28T18:42:36.706Z,13.48
2018-09-28T18:45:05.699Z,13.44
2018-09-28T18:47:34.712Z,13.42
2018-09-28T18:50:03.570Z,13.37
2018-09-28T18:52:33.007Z,13.42
2018-09-28T18:55:01.800Z,13.53
2018-09-28T18:57:30.635Z,13.57
2018-09-28T18:59:59.794Z,13.33
2018-09-28T19:02:29.833Z,13.24
2018-09-28T19:04:58.495Z,13.05
2018-09-28T19:07:27.250Z,12.85
2018-09-28T19:09:55.875Z,12.75
2018-09-28T19:12:24.593Z,12.59
2018-09-28T19:14:53.131Z,12.38
2018-09-28T19:17:22.446Z,12.29
2018-09-28T19:19:51.904Z,12.31
2018-09-28T19:22:20.960Z,12.44
2018-09-28T19:24:49.594Z,12.44
2018-09-28T19:27:18.083Z,12.33
2018-09-28T19:29:46.714Z,12.37
2018-09-28T19:32:15.415Z,12.51
2018-09-28T19:34:44.000Z,12.61
2018-09-28T19:37:12.721Z,12.57
2018-09-28T19:39:42.186Z,12.20
2018-09-28T19:42:10.836Z,11.90
2018-09-28T19:44:40.145Z,11.71
2018-09-28T19:47:08.973Z,11.54
2018-09-28T19:49:37.557Z,11.42
2018-09-28T19:52:06.101Z,11.36
2018-09-28T19:54:34.801Z,11.38
2018-09-28T19:57:03.504Z,11.33
2018-09-28T19:59:33.645Z,11.26
2018-09-28T20:02:04.264Z,11.39
2018-09-28T20:04:33.124Z,11.49
2018-09-28T20:07:03.076Z,11.63
2018-09-28T20:09:32.666Z,11.73
2018-09-28T20:12:01.194Z,11.82
2018-09-28T20:14:29.776Z,11.63
2018-09-28T20:16:58.340Z,11.35
2018-09-28T20:19:26.884Z,11.32
2018-09-28T20:21:55.722Z,11.06
2018-09-28T20:24:24.559Z,10.94
2018-09-28T20:26:53.839Z,10.79
2018-09-28T20:29:22.389Z,10.81
2018-09-28T20:31:51.145Z,10.91
2018-09-28T20:34:19.755Z,11.00
2018-09-28T20:36:49.117Z,11.19
2018-09-28T20:39:17.652Z,11.39
2018-09-28T20:41:46.179Z,11.49
2018-09-28T20:44:14.702Z,11.46
2018-09-28T20:46:43.354Z,11.47
2018-09-28T20:49:12.044Z,11.26
2018-09-28T20:51:40.764Z,11.18
2018-09-28T20:54:09.476Z,11.06
2018-09-28T20:56:38.095Z,10.85
2018-09-28T20:59:06.749Z,10.59
2018-09-28T21:01:35.366Z,10.55
2018-09-28T21:04:03.961Z,10.55
2018-09-28T21:06:33.138Z,10.53
2018-09-28T21:09:01.926Z,10.54
2018-09-28T21:11:30.534Z,10.71
2018-09-28T21:13:59.126Z,10.94
2018-09-28T21:16:27.720Z,10.98
2018-09-28T21:18:56.354Z,11.00
2018-09-28T21:21:25.280Z,11.04
2018-09-28T21:23:53.969Z,10.83
2018-09-28T21:26:23.205Z,10.45
2018-09-28T21:28:51.817Z,10.22
2018-09-28T21:31:20.544Z,10.04
2018-09-28T21:33:49.747Z,9.89
2018-09-28T21:36:18.332Z,9.90
2018-09-28T21:38:47.461Z,9.98
2018-09-28T21:41:15.967Z,10.15
2018-09-28T21:43:44.571Z,10.29
2018-09-28T21:46:13.969Z,10.39
2018-09-28T21:48:42.643Z,10.60
2018-09-28T21:51:11.152Z,10.73
2018-09-28T21:53:39.816Z,10.69
2018-09-28T21:56:08.421Z,10.71
2018-09-28T21:58:37.807Z,10.43
2018-09-28T22:01:06.380Z,10.08
2018-09-28T22:03:35.113Z,9.85
2018-09-28T22:06:04.043Z,9.47
2018-09-28T22:08:33.192Z,9.33
2018-09-28T22:11:01.875Z,9.34
2018-09-28T22:13:30.551Z,9.32
2018-09-28T22:15:59.165Z,9.37
2018-09-28T22:18:27.829Z,9.70
2018-09-28T22:20:56.449Z,10.00
2018-09-28T22:23:25.297Z,10.24
2018-09-28T22:25:53.896Z,10.42
2018-09-28T22:28:22.440Z,10.32
2018-09-28T22:30:51.100Z,10.24
2018-09-28T22:33:19.709Z,10.18
2018-09-28T22:35:48.410Z,9.77
2018-09-28T22:38:17.465Z,9.45
2018-09-28T22:40:46.044Z,9.13
2018-09-28T22:43:15.076Z,8.78
2018-09-28T22:45:43.734Z,8.68
2018-09-28T22:48:12.335Z,8.60
2018-09-28T22:50:40.931Z,8.84
2018-09-28T22:53:09.590Z,9.30
2018-09-28T22:55:38.194Z,9.66
2018-09-28T22:58:06.749Z,9.89
2018-09-28T23:00:35.924Z,9.93
2018-09-28T23:03:05.278Z,9.79
2018-09-28T23:05:34.596Z,9.61
2018-09-28T23:08:03.194Z,9.59
2018-09-28T23:10:31.870Z,9.36
2018-09-28T23:13:01.069Z,9.09
2018-09-28T23:15:30.079Z,8.92
2018-09-28T23:17:58.671Z,8.65
2018-09-28T23:20:27.284Z,8.38
2018-09-28T23:22:55.944Z,8.27
2018-09-28T23:25:24.555Z,8.49
2018-09-28T23:27:53.280Z,8.89
2018-09-28T23:30:22.516Z,8.95
2018-09-28T23:32:51.094Z,9.23
2018-09-28T23:35:19.591Z,9.48
2018-09-28T23:37:48.224Z,9.57
2018-09-28T23:40:16.773Z,9.33
2018-09-28T23:42:45.600Z,9.34
2018-09-28T23:45:14.239Z,9.25
2018-09-28T23:47:42.863Z,9.00
2018-09-28T23:50:11.409Z,8.47
2018-09-28T23:52:39.985Z,8.26
2018-09-28T23:55:08.583Z,8.08
2018-09-28T23:57:38.121Z,8.08
